Time;durP1;ratioP1;P1;durP2;ratioP2;P2;SDS_P1;SDS_P2;PMS_P1;PMS_P2;Temp;Humidity;BMP_temperature;BMP_pressure;BME280_temperature;BME280_humidity;BME280_pressure;Samples;Min_cycle;Max_cycle;Signal;HPM_P1;HPM_P2
2024/01/18 00:01:01;;;;;;;;;11.00;10.00;;;;;10.69;100.00;96066.84;5906199;29;96848;-56
2024/01/18 00:04:04;;;;;;;;;15.00;15.00;;;;;10.52;100.00;96063.81;5906008;29;96754;-56
2024/01/18 00:07:08;;;;;;;;;14.00;13.60;;;;;10.36;100.00;96060.56;5906058;29;96403;-56
2024/01/18 00:10:13;;;;;;;;;13.20;12.80;;;;;10.18;100.00;96051.34;5920329;29;96383;-55
2024/01/18 00:13:16;;;;;;;;;13.00;12.00;;;;;10.10;100.00;96041.19;5906290;29;96706;-55
2024/01/18 00:16:19;;;;;;;;;14.00;13.00;;;;;10.04;100.00;96042.31;5905327;29;96513;-55
2024/01/18 00:19:22;;;;;;;;;15.20;15.00;;;;;9.92;100.00;96048.09;5905879;29;96477;-55
2024/01/18 00:22:25;;;;;;;;;11.60;10.60;;;;;9.85;100.00;96050.34;5905481;29;96543;-56
2024/01/18 00:25:30;;;;;;;;;15.00;13.40;;;;;9.82;100.00;96047.44;5906066;29;97017;-55
2024/01/18 00:28:33;;;;;;;;;15.33;13.00;;;;;9.81;100.00;96049.31;5905640;29;96888;-56
2024/01/18 00:31:36;;;;;;;;;13.00;12.00;;;;;9.80;100.00;96060.34;5906075;29;96414;-56
2024/01/18 00:34:39;;;;;;;;;15.00;12.60;;;;;9.75;100.00;96057.72;5905777;29;96631;-55
2024/01/18 00:37:42;;;;;;;;;13.40;13.00;;;;;9.68;100.00;96052.66;5903689;29;96237;-55
2024/01/18 00:40:47;;;;;;;;;14.00;12.00;;;;;9.71;100.00;96067.44;5905860;29;96213;-56
2024/01/18 00:43:50;;;;;;;;;15.60;14.00;;;;;9.66;100.00;96057.53;5905513;29;96473;-56
2024/01/18 00:46:53;;;;;;;;;13.60;12.60;;;;;9.53;100.00;96061.69;5893147;29;96689;-56
2024/01/18 00:49:56;;;;;;;;;14.00;12.40;;;;;9.39;100.00;96055.38;5900160;29;96350;-55
2024/01/18 00:52:59;;;;;;;;;15.00;14.00;;;;;9.40;100.00;96064.25;5906012;29;96344;-55
2024/01/18 00:56:08;;;;;;;;;16.40;13.00;;;;;9.39;100.00;96068.00;5904517;29;97533;-56
2024/01/18 00:59:11;;;;;;;;;12.40;10.40;;;;;9.41;100.00;96071.22;5895174;29;96524;-56
2024/01/18 01:02:14;;;;;;;;;11.00;10.50;;;;;9.38;100.00;96063.75;5895297;29;96307;-56
2024/01/18 01:05:17;;;;;;;;;11.00;10.00;;;;;9.42;100.00;96062.88;5882753;29;96338;-56
2024/01/18 01:08:20;;;;;;;;;11.00;9.25;;;;;9.50;100.00;96088.34;5883302;29;96358;-56
2024/01/18 01:11:25;;;;;;;;;8.25;7.25;;;;;9.57;100.00;96070.81;5895529;29;96403;-56
2024/01/18 01:14:28;;;;;;;;;9.00;9.00;;;;;9.65;100.00;96077.44;5905427;29;96392;-56
2024/01/18 01:17:31;;;;;;;;;12.20;12.00;;;;;9.60;100.00;96074.81;5904962;29;96379;-56
2024/01/18 01:20:34;;;;;;;;;13.00;11.00;;;;;9.58;100.00;96072.41;5892710;29;96870;-55
2024/01/18 01:23:41;;;;;;;;;10.75;10.00;;;;;9.58;100.00;96068.91;5887192;29;96402;-56
2024/01/18 01:26:46;;;;;;;;;10.00;8.00;;;;;9.54;100.00;96066.00;5886456;29;97044;-56
2024/01/18 01:29:49;;;;;;;;;10.25;9.25;;;;;9.78;100.00;96065.22;5905992;29;96502;-56
2024/01/18 01:32:52;;;;;;;;;9.75;9.00;;;;;9.91;100.00;96072.63;5908698;29;97313;-56
2024/01/18 01:35:56;;;;;;;;;7.80;7.20;;;;;10.04;100.00;96065.75;5908560;29;97762;-56
2024/01/18 01:38:59;;;;;;;;;9.00;8.50;;;;;10.15;100.00;96065.34;5901532;29;96524;-56
2024/01/18 01:42:05;;;;;;;;;8.40;7.00;;;;;10.24;100.00;96057.47;5908744;29;96160;-56
2024/01/18 01:45:08;;;;;;;;;3.60;3.60;;;;;10.51;100.00;96062.22;5905120;29;96453;-56
2024/01/18 01:48:12;;;;;;;;;5.00;5.00;;;;;10.70;100.00;96066.53;5900931;29;98242;-56
2024/01/18 01:51:15;;;;;;;;;6.40;5.00;;;;;10.90;100.00;96059.28;5901152;29;96301;-56
2024/01/18 01:54:21;;;;;;;;;5.60;5.40;;;;;11.04;100.00;96052.06;5908666;29;96669;-57
2024/01/18 01:57:27;;;;;;;;;5.00;4.00;;;;;11.26;100.00;96052.22;5908861;29;96313;-56
2024/01/18 02:00:30;;;;;;;;;5.60;5.60;;;;;11.39;100.00;96040.66;5908479;29;96447;-54
2024/01/18 02:03:34;;;;;;;;;4.40;3.60;;;;;11.48;100.00;96030.81;5922274;23;98551;-55
2024/01/18 02:06:40;;;;;;;;;3.50;3.50;;;;;11.55;100.00;96020.44;5924738;29;96214;-54
2024/01/18 02:09:43;;;;;;;;;3.00;3.00;;;;;11.66;100.00;96032.66;5907187;29;96265;-54
2024/01/18 02:12:49;;;;;;;;;5.50;5.00;;;;;11.75;100.00;96029.28;5901995;29;96358;-55
2024/01/18 02:15:53;;;;;;;;;4.00;4.00;;;;;11.82;100.00;96017.00;5900519;29;96715;-54
2024/01/18 02:18:56;;;;;;;;;5.00;5.00;;;;;11.85;100.00;96016.41;5901730;29;96387;-55
2024/01/18 02:22:01;;;;;;;;;6.80;6.00;;;;;11.93;100.00;96021.09;5919504;29;96347;-54
2024/01/18 02:25:17;;;;;;;;;6.00;5.00;;;;;11.99;100.00;96024.50;5911081;29;96481;-54
2024/01/18 02:28:20;;;;;;;;;4.00;4.00;;;;;12.02;100.00;96026.63;5900562;29;96352;-55
2024/01/18 02:31:23;;;;;;;;;4.00;4.00;;;;;12.04;100.00;96019.00;5898878;29;96423;-55
2024/01/18 02:34:26;;;;;;;;;4.00;4.00;;;;;12.05;100.00;96010.59;5901072;29;96322;-55
2024/01/18 02:37:30;;;;;;;;;2.25;2.25;;;;;12.05;100.00;96007.91;5904012;29;96359;-54
2024/01/18 02:40:35;;;;;;;;;2.60;2.00;;;;;12.18;100.00;96016.28;5901517;29;96772;-55
2024/01/18 02:43:38;;;;;;;;;2.80;2.80;;;;;12.09;100.00;96011.59;5910063;29;96419;-54
2024/01/18 02:46:42;;;;;;;;;2.40;2.40;;;;;12.21;100.00;96027.31;5923301;29;96517;-55
2024/01/18 02:49:45;;;;;;;;;3.00;3.00;;;;;12.22;100.00;96012.69;5911764;29;96417;-55
2024/01/18 02:52:48;;;;;;;;;3.00;2.00;;;;;12.36;100.00;96040.50;5889899;29;96494;-55
2024/01/18 02:55:52;;;;;;;;;1.20;1.20;;;;;12.44;100.00;96031.66;5902286;29;96882;-55
2024/01/18 02:58:55;;;;;;;;;4.00;4.00;;;;;12.51;100.00;96037.44;5903953;29;96744;-55
2024/01/18 03:01:58;;;;;;;;;2.00;2.00;;;;;12.61;100.00;96022.91;5900872;29;96336;-55
2024/01/18 03:05:02;;;;;;;;;3.20;2.00;;;;;12.70;100.00;96020.31;5900989;29;96908;-55
2024/01/18 03:08:05;;;;;;;;;3.60;3.00;;;;;12.77;100.00;96021.47;5914090;29;96431;-54
2024/01/18 03:11:09;;;;;;;;;3.00;2.00;;;;;12.84;100.00;96010.25;5903453;29;96381;-55
2024/01/18 03:14:13;;;;;;;;;3.00;3.00;;;;;12.80;100.00;96014.69;5901004;29;96364;-54
2024/01/18 03:17:16;;;;;;;;;2.00;2.00;;;;;12.81;100.00;96013.56;5901404;29;96402;-54
2024/01/18 03:20:19;;;;;;;;;2.00;2.00;;;;;12.84;100.00;96008.34;5917550;29;96321;-56
2024/01/18 03:23:22;;;;;;;;;3.00;3.00;;;;;12.87;100.00;96010.44;5913838;29;96924;-57
2024/01/18 03:26:26;;;;;;;;;2.00;2.00;;;;;12.74;100.00;95994.28;5928748;29;96372;-56
2024/01/18 03:29:29;;;;;;;;;2.00;2.00;;;;;12.82;100.00;96009.75;5934859;29;96428;-56
2024/01/18 03:32:32;;;;;;;;;2.00;2.00;;;;;12.75;100.00;96023.72;5932395;29;96322;-56
2024/01/18 03:35:35;;;;;;;;;2.00;2.00;;;;;12.78;100.00;96023.09;5918039;29;96917;-56
2024/01/18 03:38:38;;;;;;;;;3.00;3.00;;;;;12.82;100.00;96021.38;5914727;29;96416;-56
2024/01/18 03:41:43;;;;;;;;;3.00;3.00;;;;;12.79;100.00;96021.19;5920370;29;97379;-56
2024/01/18 03:44:46;;;;;;;;;3.00;2.00;;;;;12.76;100.00;96022.56;5917933;29;96343;-56
2024/01/18 03:47:49;;;;;;;;;3.00;3.00;;;;;12.76;100.00;96010.97;5931396;29;96497;-56
2024/01/18 03:50:52;;;;;;;;;3.80;3.80;;;;;12.85;100.00;96019.97;5915707;29;96308;-57
2024/01/18 03:53:55;;;;;;;;;2.00;2.00;;;;;12.90;100.00;96017.16;5913541;29;96502;-56
2024/01/18 03:57:00;;;;;;;;;2.00;2.00;;;;;12.93;100.00;96011.13;5913722;29;96783;-56
2024/01/18 04:00:03;;;;;;;;;1.00;1.00;;;;;12.94;100.00;96018.94;5924521;29;96390;-57
2024/01/18 04:03:08;;;;;;;;;2.00;1.20;;;;;12.98;100.00;96011.00;5911711;29;96381;-56
2024/01/18 04:06:13;;;;;;;;;2.00;2.00;;;;;13.03;100.00;96008.97;5912155;29;96343;-57
2024/01/18 04:09:17;;;;;;;;;3.40;3.00;;;;;13.02;100.00;96001.97;5916827;29;96376;-56
2024/01/18 04:12:22;;;;;;;;;2.00;2.00;;;;;12.96;100.00;95991.56;5915671;29;96307;-57
2024/01/18 04:15:25;;;;;;;;;2.00;2.00;;;;;12.83;100.00;95982.41;5914139;29;96427;-57
2024/01/18 04:18:28;;;;;;;;;2.40;2.00;;;;;12.96;100.00;96000.47;5912957;29;96391;-56
2024/01/18 04:21:31;;;;;;;;;3.40;2.60;;;;;12.96;100.00;95989.66;5912121;29;99639;-56
2024/01/18 04:24:34;;;;;;;;;2.00;2.00;;;;;13.04;100.00;95993.56;5910747;29;97257;-56
2024/01/18 04:27:39;;;;;;;;;3.00;3.00;;;;;12.98;100.00;95976.66;5912212;29;96281;-56
2024/01/18 04:30:42;;;;;;;;;2.80;2.80;;;;;13.13;100.00;95989.03;5911032;29;96667;-56
2024/01/18 04:33:46;;;;;;;;;3.00;3.00;;;;;13.17;100.00;96002.72;5889699;29;96863;-54
2024/01/18 04:36:50;;;;;;;;;3.00;2.00;;;;;13.21;100.00;96006.41;5898824;29;96761;-55
2024/01/18 04:39:53;;;;;;;;;4.00;3.00;;;;;13.21;100.00;96006.41;5900543;29;96388;-55
2024/01/18 04:42:58;;;;;;;;;2.00;2.00;;;;;13.21;100.00;96001.81;5897761;29;98971;-54
2024/01/18 04:46:04;;;;;;;;;4.00;4.00;;;;;13.24;100.00;96011.22;5898354;29;96305;-56
2024/01/18 04:49:07;;;;;;;;;4.40;3.00;;;;;13.29;100.00;96024.63;5903125;29;96294;-55
2024/01/18 04:52:10;;;;;;;;;4.00;4.00;;;;;13.30;100.00;96015.38;5902078;29;96930;-55
2024/01/18 04:55:13;;;;;;;;;3.00;3.00;;;;;13.26;100.00;96025.22;5901035;29;96856;-55
2024/01/18 04:58:18;;;;;;;;;3.00;3.00;;;;;13.27;100.00;96027.63;5890903;29;98769;-55
2024/01/18 05:01:21;;;;;;;;;3.00;3.00;;;;;13.32;100.00;96029.41;5900462;29;96314;-54
2024/01/18 05:04:24;;;;;;;;;4.00;3.00;;;;;13.34;100.00;96038.81;5901539;29;96442;-55
2024/01/18 05:07:27;;;;;;;;;4.00;3.80;;;;;13.38;100.00;96042.50;5902004;29;96357;-55
2024/01/18 05:10:30;;;;;;;;;5.40;5.00;;;;;13.40;100.00;96053.81;5900800;29;96448;-55
2024/01/18 05:13:35;;;;;;;;;4.00;4.00;;;;;13.40;100.00;96053.00;5905716;29;96315;-54
2024/01/18 05:16:39;;;;;;;;;5.00;4.00;;;;;13.37;100.00;96057.16;5898165;29;96293;-54
2024/01/18 05:19:43;;;;;;;;;2.80;2.80;;;;;13.24;100.00;96046.41;5900980;29;96591;-56
2024/01/18 05:22:46;;;;;;;;;3.60;3.60;;;;;13.28;100.00;96053.59;5898519;29;96456;-54
2024/01/18 05:25:49;;;;;;;;;4.00;4.00;;;;;13.23;100.00;96061.03;5903012;29;96486;-56
2024/01/18 05:28:54;;;;;;;;;4.00;4.00;;;;;13.13;100.00;96058.56;5901279;29;96375;-55
2024/01/18 05:31:57;;;;;;;;;4.00;4.00;;;;;13.01;100.00;96053.63;5914335;29;96364;-54
2024/01/18 05:35:01;;;;;;;;;4.50;4.00;;;;;12.79;100.00;96037.41;5902468;29;96486;-55
2024/01/18 05:38:04;;;;;;;;;3.75;3.00;;;;;12.81;100.00;96062.22;5900276;29;96432;-54
2024/01/18 05:41:07;;;;;;;;;5.00;4.60;;;;;12.75;100.00;96064.25;5908592;29;97648;-57
2024/01/18 05:44:12;;;;;;;;;5.40;5.40;;;;;12.68;100.00;96068.44;5909391;29;96441;-56
2024/01/18 05:47:15;;;;;;;;;4.00;4.00;;;;;12.64;100.00;96080.97;5905139;29;96466;-56
2024/01/18 05:50:18;;;;;;;;;4.00;4.00;;;;;12.62;100.00;96083.16;5904448;29;96405;-57
2024/01/18 05:53:21;;;;;;;;;6.00;5.00;;;;;12.56;100.00;96079.78;5924206;29;96574;-57
2024/01/18 05:56:24;;;;;;;;;3.00;3.00;;;;;12.54;100.00;96090.09;5916766;29;96401;-56
2024/01/18 05:59:30;;;;;;;;;4.00;4.00;;;;;12.56;100.00;96085.19;5927817;29;96364;-56
2024/01/18 06:02:33;;;;;;;;;4.00;4.00;;;;;12.58;100.00;96091.09;5915727;29;96364;-56
2024/01/18 06:05:36;;;;;;;;;6.00;5.00;;;;;12.66;100.00;96098.47;5918541;29;96538;-57
2024/01/18 06:08:39;;;;;;;;;4.00;4.00;;;;;12.70;100.00;96098.69;5907270;29;96909;-56
2024/01/18 06:11:42;;;;;;;;;4.00;4.00;;;;;12.74;100.00;96096.97;5915047;29;96291;-54
2024/01/18 06:14:47;;;;;;;;;2.00;2.00;;;;;12.76;100.00;96106.38;5912790;29;96279;-56
2024/01/18 06:17:50;;;;;;;;;4.00;3.60;;;;;12.79;100.00;96107.69;5913320;29;96472;-55
2024/01/18 06:20:53;;;;;;;;;4.60;3.60;;;;;12.82;100.00;96107.06;5906836;29;96823;-56
2024/01/18 06:23:56;;;;;;;;;4.00;4.00;;;;;12.82;100.00;96115.97;5912673;29;96309;-56
2024/01/18 06:26:59;;;;;;;;;4.00;4.00;;;;;12.84;100.00;96110.28;5914855;29;96305;-56
2024/01/18 06:30:10;;;;;;;;;4.00;4.00;;;;;12.82;100.00;96115.97;5918398;29;96336;-56
2024/01/18 06:33:13;;;;;;;;;5.00;4.00;;;;;12.80;100.00;96114.69;5909600;29;97072;-56
2024/01/18 06:36:18;;;;;;;;;6.00;6.00;;;;;12.80;100.00;96114.69;5918867;29;96390;-56
2024/01/18 06:39:21;;;;;;;;;6.40;6.00;;;;;12.77;100.00;96121.50;5917887;29;96472;-56
2024/01/18 06:42:24;;;;;;;;;7.00;6.00;;;;;12.77;100.00;96120.69;5922284;29;96509;-56
2024/01/18 06:45:28;;;;;;;;;7.00;6.80;;;;;12.71;100.00;96121.91;5913825;29;96327;-56
2024/01/18 06:48:32;;;;;;;;;6.00;6.00;;;;;12.68;100.00;96131.41;5911017;29;96303;-56
2024/01/18 06:51:35;;;;;;;;;6.00;5.75;;;;;12.67;100.00;96115.50;5883309;29;96246;-58
2024/01/18 06:54:38;;;;;;;;;6.20;6.20;;;;;12.67;100.00;96132.50;5873234;29;96531;-58
2024/01/18 06:57:41;;;;;;;;;9.00;8.00;;;;;12.67;100.00;96129.81;5882224;29;96517;-58
2024/01/18 07:00:47;;;;;;;;;9.75;9.00;;;;;12.64;100.00;96127.72;5882247;29;96854;-58
2024/01/18 07:03:50;;;;;;;;;9.00;7.00;;;;;12.63;100.00;96134.22;5883230;29;97261;-58
2024/01/18 07:06:54;;;;;;;;;8.75;8.75;;;;;12.60;100.00;96126.72;5883829;29;96398;-58
2024/01/18 07:09:57;;;;;;;;;12.00;10.40;;;;;12.64;100.00;96137.72;5883981;29;97534;-58
2024/01/18 07:13:00;;;;;;;;;10.00;9.00;;;;;12.64;100.00;96146.66;5884206;29;96299;-58
2024/01/18 07:16:08;;;;;;;;;9.00;8.00;;;;;12.53;100.00;96134.44;5884241;29;98208;-58
2024/01/18 07:19:11;;;;;;;;;9.00;9.00;;;;;12.53;100.00;96142.53;5878482;29;96316;-58
2024/01/18 07:22:15;;;;;;;;;8.00;7.00;;;;;12.49;100.00;96136.94;5878815;29;96318;-58
2024/01/18 07:25:19;;;;;;;;;7.60;6.60;;;;;12.56;100.00;96131.13;5883792;29;96416;-58
2024/01/18 07:28:22;;;;;;;;;8.00;7.20;;;;;12.54;100.00;96142.25;5884390;29;97116;-58
2024/01/18 07:31:26;;;;;;;;;8.00;6.40;;;;;12.56;100.00;96144.63;5874078;29;97098;-58
2024/01/18 07:34:29;;;;;;;;;8.00;7.00;;;;;12.57;100.00;96149.75;5878218;29;96405;-58
2024/01/18 07:37:33;;;;;;;;;9.00;8.60;;;;;12.58;100.00;96145.94;5875734;29;96405;-58
2024/01/18 07:40:36;;;;;;;;;7.00;7.00;;;;;12.66;100.00;96149.81;5883785;29;96545;-58
2024/01/18 07:43:39;;;;;;;;;7.00;7.00;;;;;12.75;100.00;96149.94;5884276;29;96387;-58
2024/01/18 07:46:44;;;;;;;;;6.80;6.00;;;;;12.79;100.00;96157.16;5882353;29;98535;-59
2024/01/18 07:49:47;;;;;;;;;9.00;8.20;;;;;12.84;100.00;96167.84;5874985;29;96747;-58
2024/01/18 07:52:52;;;;;;;;;7.00;6.40;;;;;12.92;100.00;96164.44;5871786;29;96383;-58
2024/01/18 07:55:56;;;;;;;;;8.00;7.00;;;;;12.99;100.00;96162.13;5883858;29;96575;-58
2024/01/18 07:58:59;;;;;;;;;7.60;7.00;;;;;13.07;100.00;96167.91;5877910;29;96344;-58
2024/01/18 08:02:04;;;;;;;;;10.00;9.00;;;;;13.16;100.00;96168.81;5879150;29;97644;-57
2024/01/18 08:05:07;;;;;;;;;9.00;8.40;;;;;13.23;100.00;96161.09;5883144;29;96430;-57
2024/01/18 08:08:10;;;;;;;;;6.80;6.80;;;;;13.30;100.00;96164.19;5883042;29;96695;-57
2024/01/18 08:11:15;;;;;;;;;8.20;7.80;;;;;13.24;100.00;96157.31;5883700;29;96444;-57
2024/01/18 08:14:18;;;;;;;;;6.00;6.00;;;;;13.34;100.00;96173.31;5880043;29;96496;-57
2024/01/18 08:17:22;;;;;;;;;7.40;6.40;;;;;13.34;100.00;96178.72;5883034;29;96891;-57
2024/01/18 08:20:25;;;;;;;;;7.50;6.50;;;;;13.30;100.00;96185.81;5873210;29;96561;-57
2024/01/18 08:23:29;;;;;;;;;9.75;8.75;;;;;13.20;100.00;96186.03;5864462;29;96281;-57
2024/01/18 08:26:32;;;;;;;;;9.00;8.80;;;;;13.15;100.00;96189.66;5861340;29;96426;-57
2024/01/18 08:29:37;;;;;;;;;10.00;8.00;;;;;13.07;100.00;96195.75;5879915;29;96851;-57
2024/01/18 08:32:41;;;;;;;;;8.00;7.00;;;;;13.03;100.00;96197.47;5882616;29;96476;-57
2024/01/18 08:35:44;;;;;;;;;9.00;8.00;;;;;13.07;100.00;96206.56;5882933;29;97097;-57
2024/01/18 08:38:48;;;;;;;;;10.80;9.80;;;;;13.06;100.00;96207.69;5882725;29;97068;-57
2024/01/18 08:41:51;;;;;;;;;10.00;9.00;;;;;13.03;100.00;96209.09;5882373;29;96401;-57
2024/01/18 08:44:54;;;;;;;;;8.67;8.00;;;;;12.94;100.00;96218.22;5882561;29;96963;-57
2024/01/18 08:47:58;;;;;;;;;8.60;8.60;;;;;12.97;100.00;96223.00;5881348;29;96530;-57
2024/01/18 08:51:02;;;;;;;;;9.60;9.00;;;;;12.99;100.00;96216.22;5882502;29;96616;-57
2024/01/18 08:54:07;;;;;;;;;13.00;10.80;;;;;13.05;100.00;96214.19;5869620;29;96320;-57
2024/01/18 08:57:10;;;;;;;;;13.00;12.00;;;;;13.10;100.00;96226.78;5872980;29;97596;-57
2024/01/18 09:00:17;;;;;;;;;13.00;11.00;;;;;13.14;100.00;96235.97;5882201;29;96464;-57
2024/01/18 09:03:21;;;;;;;;;12.60;11.60;;;;;13.17;100.00;96232.63;5880303;29;97677;-57
2024/01/18 09:06:25;;;;;;;;;12.00;11.60;;;;;13.20;100.00;96242.84;5882050;29;96377;-57
2024/01/18 09:09:29;;;;;;;;;12.80;12.00;;;;;13.19;100.00;96241.28;5882520;29;96433;-57
2024/01/18 09:12:32;;;;;;;;;15.25;14.00;;;;;13.24;100.00;96260.88;5882654;29;97570;-57
2024/01/18 09:15:36;;;;;;;;;14.00;13.00;;;;;13.23;100.00;96262.00;5882627;29;97402;-57
2024/01/18 09:18:41;;;;;;;;;13.00;12.60;;;;;13.24;100.00;96268.22;5881472;29;97309;-57
2024/01/18 09:22:03;;;;;;;;;14.60;14.00;;;;;13.24;100.00;96274.41;5882775;29;96481;-57
2024/01/18 09:25:07;;;;;;;;;15.00;14.00;;;;;13.25;100.00;96270.59;5873544;29;96391;-57
2024/01/18 09:28:10;;;;;;;;;16.40;15.00;;;;;13.21;100.00;96269.59;5877043;29;96555;-57
2024/01/18 09:31:14;;;;;;;;;19.60;18.00;;;;;13.17;100.00;96275.91;5882367;29;97193;-57
2024/01/18 09:34:34;;;;;;;;;18.00;16.00;;;;;13.09;100.00;96285.53;5882550;29;96553;-57
2024/01/18 09:37:37;;;;;;;;;22.40;19.00;;;;;13.07;100.00;96295.03;5878906;29;96381;-57
2024/01/18 09:40:40;;;;;;;;;22.60;20.00;;;;;13.01;100.00;96310.53;5875455;29;96557;-57
2024/01/18 09:43:44;;;;;;;;;21.80;19.20;;;;;12.89;100.00;96318.34;5885803;29;96419;-57
2024/01/18 09:46:48;;;;;;;;;23.00;20.00;;;;;12.75;100.00;96307.53;5886125;29;97617;-57
2024/01/18 09:49:54;;;;;;;;;23.60;22.00;;;;;12.72;100.00;96321.63;5885749;29;97397;-57
2024/01/18 09:52:57;;;;;;;;;25.00;24.00;;;;;12.63;100.00;96314.50;5885763;29;96578;-57
2024/01/18 09:56:09;;;;;;;;;24.00;21.00;;;;;12.53;100.00;96310.88;5878910;29;96895;-57
2024/01/18 09:59:15;;;;;;;;;25.00;22.75;;;;;12.23;100.00;96299.75;5881567;29;97563;-57
2024/01/18 10:02:18;;;;;;;;;24.00;22.40;;;;;12.33;100.00;96330.13;5885147;29;96408;-57
2024/01/18 10:05:23;;;;;;;;;25.40;23.40;;;;;12.25;100.00;96327.28;5885474;29;97106;-57
2024/01/18 10:08:26;;;;;;;;;27.40;26.60;;;;;12.11;100.00;96336.16;5885155;29;96582;-57
2024/01/18 10:11:29;;;;;;;;;26.50;25.00;;;;;12.14;100.00;96334.75;5885319;29;97584;-57
2024/01/18 10:14:41;;;;;;;;;29.00;25.75;;;;;12.15;100.00;96325.56;5885326;29;96541;-57
2024/01/18 10:17:46;;;;;;;;;28.60;26.00;;;;;12.06;100.00;96321.91;5885639;29;96897;-57
2024/01/18 10:20:50;;;;;;;;;26.60;25.00;;;;;11.99;100.00;96318.78;5885586;29;96352;-54
2024/01/18 10:23:55;;;;;;;;;27.20;24.00;;;;;11.97;100.00;96326.38;5899169;29;98128;-54
2024/01/18 10:27:05;;;;;;;;;28.60;25.60;;;;;11.78;100.00;96298.59;5889872;29;96391;-53
2024/01/18 10:30:10;;;;;;;;;31.00;26.50;;;;;11.97;100.00;96340.66;5897910;29;96704;-54
2024/01/18 10:33:14;;;;;;;;;29.00;26.00;;;;;11.98;100.00;96336.88;5899758;29;97074;-53
2024/01/18 10:36:20;;;;;;;;;29.00;27.00;;;;;11.99;100.00;96345.75;5899411;29;97227;-54
2024/01/18 10:39:23;;;;;;;;;32.00;27.60;;;;;11.93;100.00;96342.34;5899650;29;96560;-54
2024/01/18 10:42:26;;;;;;;;;29.50;27.00;;;;;11.99;100.00;96345.75;5899556;29;96037;-54
2024/01/18 10:45:30;;;;;;;;;31.50;27.50;;;;;11.94;100.00;96343.94;5900171;29;96365;-54
2024/01/18 10:48:34;;;;;;;;;27.60;25.80;;;;;11.94;100.00;96351.25;5899916;29;97069;-54
2024/01/18 10:51:40;;;;;;;;;27.00;25.25;;;;;11.96;100.00;96354.47;5898605;29;96365;-54
2024/01/18 10:54:45;;;;;;;;;30.00;27.00;;;;;11.83;100.00;96358.66;5894679;29;96575;-53
2024/01/18 10:57:59;;;;;;;;;34.20;30.20;;;;;11.81;100.00;96354.66;5898840;29;97305;-54
2024/01/18 11:01:03;;;;;;;;;34.67;30.00;;;;;11.78;100.00;96366.84;5899871;29;96365;-54
2024/01/18 11:04:08;;;;;;;;;35.40;30.00;;;;;11.67;100.00;96371.56;5899153;29;96178;-54
2024/01/18 11:07:14;;;;;;;;;36.00;30.50;;;;;11.53;100.00;96370.63;5899998;29;96959;-54
2024/01/18 11:10:17;;;;;;;;;37.00;32.00;;;;;11.44;100.00;96375.06;5900104;29;96800;-54
2024/01/18 11:13:20;;;;;;;;;36.80;31.80;;;;;11.32;100.00;96371.97;5900090;29;96209;-54
2024/01/18 11:16:24;;;;;;;;;36.60;33.00;;;;;11.21;100.00;96365.09;5900285;29;96398;-53
2024/01/18 11:19:43;;;;;;;;;41.40;34.60;;;;;11.11;100.00;96370.59;5899903;29;96557;-54
2024/01/18 11:22:47;;;;;;;;;43.20;33.20;;;;;11.08;100.00;96371.19;5900253;29;96393;-54
2024/01/18 11:25:50;;;;;;;;;38.60;33.00;;;;;11.05;100.00;96358.25;5899123;29;96760;-54
2024/01/18 11:29:18;;;;;;;;;45.00;33.00;;;;;11.01;100.00;96358.03;5899449;29;97073;-54
2024/01/18 11:32:22;;;;;;;;;43.25;34.00;;;;;10.89;100.00;96359.50;5905804;29;96409;-56
2024/01/18 11:35:26;;;;;;;;;39.00;33.00;;;;;10.92;100.00;96359.75;5912914;29;96432;-56
2024/01/18 11:38:32;;;;;;;;;40.25;34.00;;;;;10.90;100.00;96359.22;5912725;29;96447;-56
2024/01/18 11:41:37;;;;;;;;;43.80;33.20;;;;;10.89;100.00;96362.22;5913242;29;96417;-56
2024/01/18 11:44:49;;;;;;;;;41.00;35.00;;;;;10.85;100.00;96361.94;5912327;29;96894;-56
2024/01/18 11:47:52;;;;;;;;;41.00;33.60;;;;;10.85;100.00;96365.44;5913087;29;96369;-56
2024/01/18 11:50:57;;;;;;;;;43.40;34.40;;;;;10.69;100.00;96333.56;5912902;29;97059;-56
2024/01/18 11:54:03;;;;;;;;;43.40;35.00;;;;;10.82;100.00;96359.84;5913113;29;96673;-56
2024/01/18 11:57:13;;;;;;;;;44.50;35.00;;;;;10.81;100.00;96358.22;5913234;29;96350;-56
2024/01/18 12:00:16;;;;;;;;;41.00;34.33;;;;;10.76;100.00;96359.06;5913309;29;96263;-56
2024/01/18 12:03:19;;;;;;;;;42.40;35.00;;;;;10.67;100.00;96344.63;5912157;29;96404;-56
2024/01/18 12:06:26;;;;;;;;;41.00;33.25;;;;;10.74;100.00;96358.56;5912960;29;96119;-56
2024/01/18 12:09:31;;;;;;;;;39.00;32.00;;;;;10.70;100.00;96356.75;5913623;29;96282;-56
2024/01/18 12:12:35;;;;;;;;;37.60;33.00;;;;;10.66;100.00;96359.16;5912687;29;96396;-56
2024/01/18 12:15:41;;;;;;;;;40.25;33.75;;;;;10.74;100.00;96355.88;5912494;29;96331;-56
2024/01/18 12:18:44;;;;;;;;;42.80;35.00;;;;;10.80;100.00;96349.34;5913152;29;96301;-56
2024/01/18 12:21:47;;;;;;;;;41.00;35.00;;;;;10.87;100.00;96357.09;5912679;29;96525;-56
2024/01/18 12:24:53;;;;;;;;;44.50;36.00;;;;;10.88;100.00;96360.59;5912764;29;96386;-55
2024/01/18 12:27:56;;;;;;;;;43.80;35.00;;;;;10.96;100.00;96368.06;5912582;29;96382;-56
2024/01/18 12:31:01;;;;;;;;;40.40;35.00;;;;;10.93;100.00;96369.44;5912594;29;96377;-56
2024/01/18 12:34:04;;;;;;;;;43.00;35.25;;;;;10.94;100.00;96371.06;5912434;29;96345;-56
2024/01/18 12:37:08;;;;;;;;;43.60;35.00;;;;;10.95;100.00;96369.94;5912007;29;96799;-56
2024/01/18 12:40:12;;;;;;;;;45.00;36.00;;;;;10.93;100.00;96364.03;5912566;29;96357;-56
2024/01/18 12:43:16;;;;;;;;;43.00;35.50;;;;;10.91;100.00;96368.09;5911113;29;96443;-56
2024/01/18 12:46:19;;;;;;;;;45.00;37.00;;;;;10.88;100.00;96372.19;5912504;29;96475;-56
2024/01/18 12:49:24;;;;;;;;;43.40;35.80;;;;;10.88;100.00;96371.38;5912495;29;96367;-56
2024/01/18 12:52:32;;;;;;;;;50.00;40.00;;;;;10.83;100.00;96381.13;5912067;29;96358;-56
2024/01/18 12:55:37;;;;;;;;;47.00;38.50;;;;;10.79;100.00;96376.59;5911545;29;96394;-56
2024/01/18 12:58:41;;;;;;;;;45.75;36.00;;;;;10.78;100.00;96375.78;5912251;29;96341;-56
2024/01/18 13:01:50;;;;;;;;;44.40;35.60;;;;;10.77;100.00;96392.22;5911661;29;96357;-56
2024/01/18 13:04:53;;;;;;;;;48.00;39.00;;;;;10.75;100.00;96391.72;5912321;29;96344;-56
2024/01/18 13:07:56;;;;;;;;;45.00;37.00;;;;;10.77;100.00;96390.34;5911568;29;96387;-56
2024/01/18 13:11:01;;;;;;;;;45.00;36.00;;;;;10.77;100.00;96393.03;5911747;29;96322;-56
2024/01/18 13:14:07;;;;;;;;;45.00;36.60;;;;;10.75;100.00;96391.72;5912016;29;96389;-56
2024/01/18 13:17:10;;;;;;;;;50.00;39.75;;;;;10.75;100.00;96391.72;5899634;29;96556;-56
2024/01/18 13:20:14;;;;;;;;;50.20;40.00;;;;;10.74;100.00;96398.19;5914957;29;97368;-56
2024/01/18 13:23:17;;;;;;;;;50.00;38.60;;;;;10.70;100.00;96406.00;5914968;29;96339;-56
2024/01/18 13:26:22;;;;;;;;;49.00;40.40;;;;;10.69;100.00;96409.81;5915787;29;96244;-56
2024/01/18 13:29:25;;;;;;;;;47.50;39.00;;;;;10.67;100.00;96419.25;5915704;29;96323;-56
2024/01/18 13:32:29;;;;;;;;;49.40;39.00;;;;;10.55;100.00;96400.78;5915839;29;96338;-56
2024/01/18 13:35:32;;;;;;;;;49.80;40.00;;;;;10.60;100.00;96414.22;5915351;29;96451;-56
2024/01/18 13:38:35;;;;;;;;;49.00;39.00;;;;;10.56;100.00;96418.53;5915292;29;96418;-56
2024/01/18 13:41:40;;;;;;;;;49.80;40.00;;;;;10.61;100.00;96415.78;5915556;29;96437;-56
2024/01/18 13:44:43;;;;;;;;;51.60;41.00;;;;;10.63;100.00;96421.72;5914815;29;96477;-56
2024/01/18 13:47:46;;;;;;;;;50.00;40.00;;;;;10.60;100.00;96430.38;5915561;29;96462;-56
2024/01/18 13:50:49;;;;;;;;;52.50;42.25;;;;;10.59;100.00;96436.84;5915253;29;96305;-56
2024/01/18 13:53:52;;;;;;;;;47.20;39.00;;;;;10.55;100.00;96443.88;5908620;29;96480;-56
2024/01/18 13:56:57;;;;;;;;;49.00;38.50;;;;;10.49;100.00;96436.91;5913179;29;96305;-56
2024/01/18 14:00:00;;;;;;;;;51.60;42.00;;;;;10.50;100.00;96443.91;5914504;29;96429;-56
2024/01/18 14:03:05;;;;;;;;;52.25;40.50;;;;;10.50;100.00;96451.19;5914134;29;96389;-56
2024/01/18 14:06:09;;;;;;;;;52.25;41.75;;;;;10.50;100.00;96460.06;5913985;29;96448;-56
2024/01/18 14:09:12;;;;;;;;;52.20;42.00;;;;;10.48;100.00;96466.81;5906332;29;96540;-56